sensor_id;sensor_type;location;lat;lon;timestamp;P1;durP1;ratioP1;P2;durP2;ratioP2
30872;SDS011;17579;42.690;2.586;2023-02-23T00:02:23;12.23;;;7.38;;
30872;SDS011;17579;42.690;2.586;2023-02-23T00:04:49;11.38;;;6.78;;
30872;SDS011;17579;42.690;2.586;2023-02-23T00:07:15;13.98;;;6.18;;
30872;SDS011;17579;42.690;2.586;2023-02-23T00:09:44;9.82;;;6.05;;
30872;SDS011;17579;42.690;2.586;2023-02-23T00:12:11;9.32;;;5.85;;
30872;SDS011;17579;42.690;2.586;2023-02-23T00:14:37;10.98;;;5.43;;
30872;SDS011;17579;42.690;2.586;2023-02-23T00:17:03;10.82;;;5.57;;
30872;SDS011;17579;42.690;2.586;2023-02-23T00:19:29;11.93;;;5.50;;
30872;SDS011;17579;42.690;2.586;2023-02-23T00:21:57;8.82;;;6.50;;
30872;SDS011;17579;42.690;2.586;2023-02-23T00:24:22;12.10;;;6.50;;
30872;SDS011;17579;42.690;2.586;2023-02-23T00:26:50;10.52;;;6.15;;
30872;SDS011;17579;42.690;2.586;2023-02-23T00:29:17;7.50;;;5.90;;
30872;SDS011;17579;42.690;2.586;2023-02-23T00:31:45;10.02;;;6.70;;
30872;SDS011;17579;42.690;2.586;2023-02-23T00:34:12;8.63;;;6.00;;
30872;SDS011;17579;42.690;2.586;2023-02-23T00:36:39;9.13;;;6.18;;
30872;SDS011;17579;42.690;2.586;2023-02-23T00:39:06;10.75;;;5.95;;
30872;SDS011;17579;42.690;2.586;2023-02-23T00:41:55;6.40;;;5.45;;
30872;SDS011;17579;42.690;2.586;2023-02-23T00:44:26;9.35;;;5.78;;
30872;SDS011;17579;42.690;2.586;2023-02-23T00:46:52;9.18;;;5.78;;
30872;SDS011;17579;42.690;2.586;2023-02-23T00:49:18;10.55;;;5.78;;
30872;SDS011;17579;42.690;2.586;2023-02-23T00:51:45;9.57;;;5.63;;
30872;SDS011;17579;42.690;2.586;2023-02-23T00:54:11;10.00;;;6.88;;
30872;SDS011;17579;42.690;2.586;2023-02-23T00:56:38;9.30;;;5.85;;
30872;SDS011;17579;42.690;2.586;2023-02-23T00:59:04;12.02;;;5.82;;
30872;SDS011;17579;42.690;2.586;2023-02-23T01:01:29;9.63;;;5.43;;
30872;SDS011;17579;42.690;2.586;2023-02-23T01:03:55;8.88;;;5.20;;
30872;SDS011;17579;42.690;2.586;2023-02-23T01:06:21;9.82;;;5.32;;
30872;SDS011;17579;42.690;2.586;2023-02-23T01:08:48;8.38;;;5.20;;
30872;SDS011;17579;42.690;2.586;2023-02-23T01:11:16;10.23;;;5.68;;
30872;SDS011;17579;42.690;2.586;2023-02-23T01:13:45;12.23;;;5.88;;
30872;SDS011;17579;42.690;2.586;2023-02-23T01:16:12;10.55;;;5.10;;
30872;SDS011;17579;42.690;2.586;2023-02-23T01:18:39;7.70;;;5.63;;
30872;SDS011;17579;42.690;2.586;2023-02-23T01:21:13;12.77;;;6.10;;
30872;SDS011;17579;42.690;2.586;2023-02-23T01:23:41;9.27;;;5.88;;
30872;SDS011;17579;42.690;2.586;2023-02-23T01:28:37;9.38;;;5.78;;
30872;SDS011;17579;42.690;2.586;2023-02-23T01:31:06;9.52;;;5.78;;
30872;SDS011;17579;42.690;2.586;2023-02-23T01:33:33;11.07;;;5.57;;
30872;SDS011;17579;42.690;2.586;2023-02-23T01:35:58;9.25;;;5.53;;
30872;SDS011;17579;42.690;2.586;2023-02-23T01:38:24;9.98;;;5.70;;
30872;SDS011;17579;42.690;2.586;2023-02-23T01:40:50;6.95;;;4.90;;
30872;SDS011;17579;42.690;2.586;2023-02-23T01:43:17;7.65;;;5.32;;
30872;SDS011;17579;42.690;2.586;2023-02-23T01:45:50;12.15;;;5.65;;
30872;SDS011;17579;42.690;2.586;2023-02-23T01:48:19;7.30;;;4.80;;
30872;SDS011;17579;42.690;2.586;2023-02-23T01:50:49;6.53;;;5.00;;
30872;SDS011;17579;42.690;2.586;2023-02-23T01:53:19;10.93;;;5.07;;
30872;SDS011;17579;42.690;2.586;2023-02-23T01:55:47;10.05;;;5.35;;
30872;SDS011;17579;42.690;2.586;2023-02-23T01:58:15;7.65;;;5.43;;
30872;SDS011;17579;42.690;2.586;2023-02-23T02:00:45;9.00;;;5.57;;
30872;SDS011;17579;42.690;2.586;2023-02-23T02:03:16;10.32;;;5.40;;
30872;SDS011;17579;42.690;2.586;2023-02-23T02:05:48;13.02;;;6.25;;
30872;SDS011;17579;42.690;2.586;2023-02-23T02:08:15;9.45;;;6.03;;
30872;SDS011;17579;42.690;2.586;2023-02-23T02:10:43;8.38;;;5.57;;
30872;SDS011;17579;42.690;2.586;2023-02-23T02:13:11;11.30;;;5.82;;
30872;SDS011;17579;42.690;2.586;2023-02-23T02:15:45;12.95;;;6.20;;
30872;SDS011;17579;42.690;2.586;2023-02-23T02:18:28;11.30;;;6.10;;
30872;SDS011;17579;42.690;2.586;2023-02-23T02:21:08;9.90;;;5.68;;
30872;SDS011;17579;42.690;2.586;2023-02-23T02:24:03;11.30;;;5.63;;
30872;SDS011;17579;42.690;2.586;2023-02-23T02:26:35;9.65;;;5.03;;
30872;SDS011;17579;42.690;2.586;2023-02-23T02:35:13;10.43;;;4.85;;
30872;SDS011;17579;42.690;2.586;2023-02-23T02:40:25;10.45;;;4.65;;
30872;SDS011;17579;42.690;2.586;2023-02-23T02:43:00;10.07;;;4.90;;
30872;SDS011;17579;42.690;2.586;2023-02-23T02:45:39;9.63;;;5.07;;
30872;SDS011;17579;42.690;2.586;2023-02-23T02:48:16;10.80;;;4.70;;
30872;SDS011;17579;42.690;2.586;2023-02-23T02:53:22;8.73;;;4.60;;
30872;SDS011;17579;42.690;2.586;2023-02-23T02:55:54;9.52;;;4.78;;
30872;SDS011;17579;42.690;2.586;2023-02-23T02:58:24;11.38;;;4.80;;
30872;SDS011;17579;42.690;2.586;2023-02-23T03:00:51;12.63;;;5.05;;
30872;SDS011;17579;42.690;2.586;2023-02-23T03:05:47;6.63;;;4.28;;
30872;SDS011;17579;42.690;2.586;2023-02-23T03:11:21;7.13;;;4.53;;
30872;SDS011;17579;42.690;2.586;2023-02-23T03:14:00;9.65;;;5.15;;
30872;SDS011;17579;42.690;2.586;2023-02-23T03:16:46;13.57;;;5.18;;
30872;SDS011;17579;42.690;2.586;2023-02-23T03:19:18;8.02;;;4.70;;
30872;SDS011;17579;42.690;2.586;2023-02-23T03:21:53;8.88;;;5.43;;
30872;SDS011;17579;42.690;2.586;2023-02-23T03:24:35;9.43;;;4.45;;
30872;SDS011;17579;42.690;2.586;2023-02-23T03:32:31;7.72;;;4.78;;
30872;SDS011;17579;42.690;2.586;2023-02-23T03:35:04;8.88;;;4.95;;
30872;SDS011;17579;42.690;2.586;2023-02-23T03:37:38;6.95;;;4.95;;
30872;SDS011;17579;42.690;2.586;2023-02-23T03:40:12;10.13;;;5.13;;
30872;SDS011;17579;42.690;2.586;2023-02-23T03:42:43;9.05;;;4.50;;
30872;SDS011;17579;42.690;2.586;2023-02-23T03:45:12;6.82;;;4.57;;
30872;SDS011;17579;42.690;2.586;2023-02-23T03:47:42;8.23;;;4.90;;
30872;SDS011;17579;42.690;2.586;2023-02-23T03:50:13;8.20;;;4.28;;
30872;SDS011;17579;42.690;2.586;2023-02-23T03:52:44;7.07;;;4.90;;
30872;SDS011;17579;42.690;2.586;2023-02-23T03:55:16;8.10;;;5.18;;
30872;SDS011;17579;42.690;2.586;2023-02-23T03:57:46;7.97;;;4.32;;
30872;SDS011;17579;42.690;2.586;2023-02-23T04:00:22;8.15;;;4.55;;
30872;SDS011;17579;42.690;2.586;2023-02-23T04:02:54;8.15;;;5.03;;
30872;SDS011;17579;42.690;2.586;2023-02-23T04:05:24;7.90;;;4.80;;
30872;SDS011;17579;42.690;2.586;2023-02-23T04:07:53;9.77;;;5.38;;
30872;SDS011;17579;42.690;2.586;2023-02-23T04:10:21;7.60;;;5.00;;
30872;SDS011;17579;42.690;2.586;2023-02-23T04:15:23;9.73;;;5.28;;
30872;SDS011;17579;42.690;2.586;2023-02-23T04:17:51;9.52;;;5.10;;
30872;SDS011;17579;42.690;2.586;2023-02-23T04:20:18;7.32;;;5.03;;
30872;SDS011;17579;42.690;2.586;2023-02-23T04:22:47;9.98;;;5.32;;
30872;SDS011;17579;42.690;2.586;2023-02-23T04:25:13;10.43;;;5.20;;
30872;SDS011;17579;42.690;2.586;2023-02-23T04:27:40;10.38;;;5.60;;
30872;SDS011;17579;42.690;2.586;2023-02-23T04:30:05;9.63;;;5.10;;
30872;SDS011;17579;42.690;2.586;2023-02-23T04:32:35;11.02;;;5.97;;
30872;SDS011;17579;42.690;2.586;2023-02-23T04:35:01;11.52;;;5.10;;
30872;SDS011;17579;42.690;2.586;2023-02-23T04:37:27;10.68;;;5.93;;
30872;SDS011;17579;42.690;2.586;2023-02-23T04:39:52;6.43;;;5.28;;
30872;SDS011;17579;42.690;2.586;2023-02-23T04:42:18;11.38;;;5.43;;
30872;SDS011;17579;42.690;2.586;2023-02-23T04:44:44;9.77;;;4.97;;
30872;SDS011;17579;42.690;2.586;2023-02-23T04:47:10;9.13;;;5.00;;
30872;SDS011;17579;42.690;2.586;2023-02-23T04:49:36;11.18;;;5.60;;
30872;SDS011;17579;42.690;2.586;2023-02-23T04:52:02;7.65;;;4.63;;
30872;SDS011;17579;42.690;2.586;2023-02-23T04:54:28;9.85;;;5.60;;
30872;SDS011;17579;42.690;2.586;2023-02-23T04:56:53;10.98;;;5.60;;
30872;SDS011;17579;42.690;2.586;2023-02-23T04:59:19;7.63;;;5.18;;
30872;SDS011;17579;42.690;2.586;2023-02-23T05:01:45;10.20;;;4.90;;
30872;SDS011;17579;42.690;2.586;2023-02-23T05:04:10;7.82;;;5.30;;
30872;SDS011;17579;42.690;2.586;2023-02-23T05:06:36;11.65;;;5.57;;
30872;SDS011;17579;42.690;2.586;2023-02-23T05:09:02;11.13;;;5.55;;
30872;SDS011;17579;42.690;2.586;2023-02-23T05:11:29;8.30;;;5.65;;
30872;SDS011;17579;42.690;2.586;2023-02-23T05:13:54;9.88;;;5.60;;
30872;SDS011;17579;42.690;2.586;2023-02-23T05:16:20;9.70;;;5.80;;
30872;SDS011;17579;42.690;2.586;2023-02-23T05:18:46;11.63;;;6.13;;
30872;SDS011;17579;42.690;2.586;2023-02-23T05:21:11;8.80;;;5.95;;
30872;SDS011;17579;42.690;2.586;2023-02-23T05:23:37;8.23;;;5.75;;
30872;SDS011;17579;42.690;2.586;2023-02-23T05:26:04;6.53;;;5.30;;
30872;SDS011;17579;42.690;2.586;2023-02-23T05:28:33;11.27;;;4.97;;
30872;SDS011;17579;42.690;2.586;2023-02-23T05:31:00;10.73;;;6.43;;
30872;SDS011;17579;42.690;2.586;2023-02-23T05:33:28;13.02;;;5.78;;
30872;SDS011;17579;42.690;2.586;2023-02-23T05:35:54;10.05;;;5.43;;
30872;SDS011;17579;42.690;2.586;2023-02-23T05:38:19;8.70;;;5.80;;
30872;SDS011;17579;42.690;2.586;2023-02-23T05:40:46;13.45;;;5.90;;
30872;SDS011;17579;42.690;2.586;2023-02-23T05:43:12;10.43;;;5.75;;
30872;SDS011;17579;42.690;2.586;2023-02-23T05:45:39;9.80;;;6.10;;
30872;SDS011;17579;42.690;2.586;2023-02-23T05:48:05;11.98;;;5.78;;
30872;SDS011;17579;42.690;2.586;2023-02-23T05:50:31;13.38;;;6.53;;
30872;SDS011;17579;42.690;2.586;2023-02-23T05:52:57;9.07;;;6.00;;
30872;SDS011;17579;42.690;2.586;2023-02-23T05:55:22;8.90;;;5.68;;
30872;SDS011;17579;42.690;2.586;2023-02-23T05:57:48;9.98;;;6.05;;
30872;SDS011;17579;42.690;2.586;2023-02-23T06:00:14;8.23;;;5.88;;
30872;SDS011;17579;42.690;2.586;2023-02-23T06:02:40;11.85;;;6.32;;
30872;SDS011;17579;42.690;2.586;2023-02-23T06:05:06;10.10;;;6.50;;
30872;SDS011;17579;42.690;2.586;2023-02-23T06:07:33;8.80;;;5.97;;
30872;SDS011;17579;42.690;2.586;2023-02-23T06:09:58;10.98;;;6.15;;
30872;SDS011;17579;42.690;2.586;2023-02-23T06:12:24;10.55;;;6.45;;
30872;SDS011;17579;42.690;2.586;2023-02-23T06:14:49;10.73;;;6.60;;
30872;SDS011;17579;42.690;2.586;2023-02-23T06:17:15;10.15;;;6.13;;
30872;SDS011;17579;42.690;2.586;2023-02-23T06:19:42;10.45;;;6.57;;
30872;SDS011;17579;42.690;2.586;2023-02-23T06:22:08;11.65;;;5.97;;
30872;SDS011;17579;42.690;2.586;2023-02-23T06:24:33;9.30;;;6.30;;
30872;SDS011;17579;42.690;2.586;2023-02-23T06:26:59;14.73;;;7.53;;
30872;SDS011;17579;42.690;2.586;2023-02-23T06:29:25;9.02;;;6.55;;
30872;SDS011;17579;42.690;2.586;2023-02-23T06:31:50;12.85;;;6.65;;
30872;SDS011;17579;42.690;2.586;2023-02-23T06:34:16;14.02;;;7.43;;
30872;SDS011;17579;42.690;2.586;2023-02-23T06:36:42;9.43;;;6.63;;
30872;SDS011;17579;42.690;2.586;2023-02-23T06:39:09;11.45;;;6.60;;
30872;SDS011;17579;42.690;2.586;2023-02-23T06:41:35;11.75;;;6.85;;
30872;SDS011;17579;42.690;2.586;2023-02-23T06:44:01;8.48;;;6.60;;
30872;SDS011;17579;42.690;2.586;2023-02-23T06:46:27;12.73;;;8.50;;
30872;SDS011;17579;42.690;2.586;2023-02-23T06:48:54;13.23;;;8.07;;
30872;SDS011;17579;42.690;2.586;2023-02-23T06:51:21;15.55;;;8.85;;
30872;SDS011;17579;42.690;2.586;2023-02-23T06:53:47;11.93;;;8.00;;
30872;SDS011;17579;42.690;2.586;2023-02-23T06:56:12;12.90;;;7.80;;
30872;SDS011;17579;42.690;2.586;2023-02-23T06:58:39;12.43;;;7.97;;
30872;SDS011;17579;42.690;2.586;2023-02-23T07:01:04;11.63;;;7.57;;
30872;SDS011;17579;42.690;2.586;2023-02-23T07:03:30;11.35;;;7.72;;
30872;SDS011;17579;42.690;2.586;2023-02-23T07:05:56;14.20;;;7.85;;
30872;SDS011;17579;42.690;2.586;2023-02-23T07:08:22;14.27;;;7.78;;
30872;SDS011;17579;42.690;2.586;2023-02-23T07:10:48;12.48;;;7.63;;
30872;SDS011;17579;42.690;2.586;2023-02-23T07:13:13;11.57;;;7.65;;
30872;SDS011;17579;42.690;2.586;2023-02-23T07:15:39;11.48;;;7.60;;
30872;SDS011;17579;42.690;2.586;2023-02-23T07:18:05;11.13;;;6.82;;
30872;SDS011;17579;42.690;2.586;2023-02-23T07:20:31;11.25;;;7.57;;
30872;SDS011;17579;42.690;2.586;2023-02-23T07:22:57;12.18;;;8.13;;
30872;SDS011;17579;42.690;2.586;2023-02-23T07:25:25;13.75;;;7.80;;
30872;SDS011;17579;42.690;2.586;2023-02-23T07:27:52;13.48;;;7.95;;
30872;SDS011;17579;42.690;2.586;2023-02-23T07:30:18;10.90;;;7.40;;
30872;SDS011;17579;42.690;2.586;2023-02-23T07:32:44;11.40;;;8.57;;
30872;SDS011;17579;42.690;2.586;2023-02-23T07:35:10;14.30;;;8.05;;
30872;SDS011;17579;42.690;2.586;2023-02-23T07:37:35;11.35;;;8.48;;
30872;SDS011;17579;42.690;2.586;2023-02-23T07:40:01;13.60;;;9.27;;
30872;SDS011;17579;42.690;2.586;2023-02-23T07:42:27;14.38;;;8.90;;
30872;SDS011;17579;42.690;2.586;2023-02-23T07:44:53;18.42;;;9.48;;
30872;SDS011;17579;42.690;2.586;2023-02-23T07:47:20;17.52;;;10.10;;
30872;SDS011;17579;42.690;2.586;2023-02-23T07:49:46;15.40;;;9.95;;
30872;SDS011;17579;42.690;2.586;2023-02-23T07:52:15;17.70;;;10.38;;
30872;SDS011;17579;42.690;2.586;2023-02-23T07:54:42;18.70;;;9.65;;
30872;SDS011;17579;42.690;2.586;2023-02-23T07:57:08;15.13;;;9.00;;
30872;SDS011;17579;42.690;2.586;2023-02-23T07:59:33;14.07;;;9.25;;
30872;SDS011;17579;42.690;2.586;2023-02-23T08:01:59;15.82;;;10.15;;
30872;SDS011;17579;42.690;2.586;2023-02-23T08:04:25;17.75;;;9.50;;
30872;SDS011;17579;42.690;2.586;2023-02-23T08:06:50;12.57;;;7.93;;
30872;SDS011;17579;42.690;2.586;2023-02-23T08:09:16;13.85;;;8.80;;
30872;SDS011;17579;42.690;2.586;2023-02-23T08:11:42;15.63;;;9.35;;
30872;SDS011;17579;42.690;2.586;2023-02-23T08:14:07;14.35;;;8.50;;
30872;SDS011;17579;42.690;2.586;2023-02-23T08:16:34;11.65;;;8.85;;
30872;SDS011;17579;42.690;2.586;2023-02-23T08:19:00;11.45;;;7.82;;
30872;SDS011;17579;42.690;2.586;2023-02-23T08:21:26;14.00;;;8.82;;
30872;SDS011;17579;42.690;2.586;2023-02-23T08:23:53;13.32;;;9.82;;
30872;SDS011;17579;42.690;2.586;2023-02-23T08:26:20;11.27;;;8.73;;
30872;SDS011;17579;42.690;2.586;2023-02-23T08:28:46;13.50;;;9.18;;
30872;SDS011;17579;42.690;2.586;2023-02-23T08:31:12;14.13;;;10.77;;
30872;SDS011;17579;42.690;2.586;2023-02-23T08:33:40;16.10;;;10.48;;
30872;SDS011;17579;42.690;2.586;2023-02-23T08:36:06;18.27;;;9.45;;
30872;SDS011;17579;42.690;2.586;2023-02-23T08:38:33;14.77;;;8.50;;
30872;SDS011;17579;42.690;2.586;2023-02-23T08:41:00;15.55;;;8.55;;
30872;SDS011;17579;42.690;2.586;2023-02-23T08:43:27;11.63;;;8.50;;
30872;SDS011;17579;42.690;2.586;2023-02-23T08:45:53;13.70;;;8.30;;
30872;SDS011;17579;42.690;2.586;2023-02-23T08:48:18;15.52;;;8.68;;
30872;SDS011;17579;42.690;2.586;2023-02-23T08:50:47;14.13;;;8.32;;
30872;SDS011;17579;42.690;2.586;2023-02-23T08:53:14;14.02;;;8.63;;
30872;SDS011;17579;42.690;2.586;2023-02-23T08:55:40;13.38;;;7.88;;
30872;SDS011;17579;42.690;2.586;2023-02-23T08:58:06;15.82;;;7.93;;
30872;SDS011;17579;42.690;2.586;2023-02-23T09:00:35;10.73;;;7.32;;
30872;SDS011;17579;42.690;2.586;2023-02-23T09:03:01;16.98;;;9.48;;
30872;SDS011;17579;42.690;2.586;2023-02-23T09:05:29;14.32;;;10.00;;
30872;SDS011;17579;42.690;2.586;2023-02-23T09:07:55;17.35;;;8.88;;
30872;SDS011;17579;42.690;2.586;2023-02-23T09:10:21;12.65;;;8.15;;
30872;SDS011;17579;42.690;2.586;2023-02-23T09:12:49;12.05;;;7.43;;
30872;SDS011;17579;42.690;2.586;2023-02-23T09:15:15;11.98;;;8.27;;
30872;SDS011;17579;42.690;2.586;2023-02-23T09:17:41;14.75;;;8.07;;
30872;SDS011;17579;42.690;2.586;2023-02-23T09:20:09;13.38;;;8.30;;
30872;SDS011;17579;42.690;2.586;2023-02-23T09:22:38;12.23;;;8.50;;
30872;SDS011;17579;42.690;2.586;2023-02-23T09:25:04;14.88;;;8.10;;
30872;SDS011;17579;42.690;2.586;2023-02-23T09:27:30;14.20;;;8.82;;
30872;SDS011;17579;42.690;2.586;2023-02-23T09:29:56;13.82;;;7.60;;
30872;SDS011;17579;42.690;2.586;2023-02-23T09:32:21;17.13;;;8.13;;
30872;SDS011;17579;42.690;2.586;2023-02-23T09:34:47;13.60;;;8.80;;
30872;SDS011;17579;42.690;2.586;2023-02-23T09:37:13;14.48;;;7.03;;
30872;SDS011;17579;42.690;2.586;2023-02-23T09:39:39;12.48;;;7.18;;
30872;SDS011;17579;42.690;2.586;2023-02-23T09:42:07;9.82;;;6.50;;
30872;SDS011;17579;42.690;2.586;2023-02-23T09:47:34;10.70;;;6.97;;
30872;SDS011;17579;42.690;2.586;2023-02-23T09:50:12;11.38;;;6.60;;
30872;SDS011;17579;42.690;2.586;2023-02-23T09:52:43;11.98;;;7.18;;
30872;SDS011;17579;42.690;2.586;2023-02-23T09:55:11;11.57;;;6.50;;
30872;SDS011;17579;42.690;2.586;2023-02-23T09:57:41;13.25;;;7.30;;
30872;SDS011;17579;42.690;2.586;2023-02-23T10:00:23;13.40;;;7.93;;
30872;SDS011;17579;42.690;2.586;2023-02-23T10:05:42;10.30;;;6.82;;
30872;SDS011;17579;42.690;2.586;2023-02-23T10:08:17;11.07;;;7.60;;
30872;SDS011;17579;42.690;2.586;2023-02-23T10:10:47;14.88;;;7.78;;
30872;SDS011;17579;42.690;2.586;2023-02-23T10:18:45;12.20;;;7.63;;
30872;SDS011;17579;42.690;2.586;2023-02-23T10:21:27;11.35;;;7.30;;
30872;SDS011;17579;42.690;2.586;2023-02-23T10:26:37;12.52;;;6.82;;
30872;SDS011;17579;42.690;2.586;2023-02-23T10:29:14;12.35;;;7.03;;
30872;SDS011;17579;42.690;2.586;2023-02-23T10:31:48;10.82;;;6.85;;
30872;SDS011;17579;42.690;2.586;2023-02-23T10:34:18;16.15;;;8.15;;
30872;SDS011;17579;42.690;2.586;2023-02-23T10:36:56;12.15;;;7.55;;
30872;SDS011;17579;42.690;2.586;2023-02-23T10:39:24;13.45;;;7.72;;
30872;SDS011;17579;42.690;2.586;2023-02-23T10:41:50;10.85;;;7.63;;
30872;SDS011;17579;42.690;2.586;2023-02-23T10:44:19;12.07;;;7.63;;
30872;SDS011;17579;42.690;2.586;2023-02-23T10:46:49;12.70;;;7.78;;
30872;SDS011;17579;42.690;2.586;2023-02-23T10:49:19;14.88;;;8.20;;
30872;SDS011;17579;42.690;2.586;2023-02-23T10:51:47;10.38;;;7.53;;
30872;SDS011;17579;42.690;2.586;2023-02-23T10:54:33;11.23;;;8.05;;
30872;SDS011;17579;42.690;2.586;2023-02-23T10:57:00;14.82;;;8.27;;
30872;SDS011;17579;42.690;2.586;2023-02-23T10:59:26;13.48;;;9.55;;
30872;SDS011;17579;42.690;2.586;2023-02-23T11:01:52;11.57;;;8.65;;
30872;SDS011;17579;42.690;2.586;2023-02-23T11:04:20;14.77;;;8.93;;
30872;SDS011;17579;42.690;2.586;2023-02-23T11:09:31;14.57;;;8.50;;
30872;SDS011;17579;42.690;2.586;2023-02-23T11:14:32;10.15;;;8.48;;
30872;SDS011;17579;42.690;2.586;2023-02-23T11:16:58;14.98;;;9.25;;
30872;SDS011;17579;42.690;2.586;2023-02-23T11:19:26;15.20;;;9.85;;
30872;SDS011;17579;42.690;2.586;2023-02-23T11:21:57;14.45;;;9.43;;
30872;SDS011;17579;42.690;2.586;2023-02-23T11:24:25;13.93;;;8.77;;
30872;SDS011;17579;42.690;2.586;2023-02-23T11:26:55;13.60;;;9.75;;
30872;SDS011;17579;42.690;2.586;2023-02-23T11:29:26;12.43;;;9.48;;
30872;SDS011;17579;42.690;2.586;2023-02-23T11:31:57;17.77;;;10.05;;
30872;SDS011;17579;42.690;2.586;2023-02-23T11:34:30;14.48;;;10.02;;
30872;SDS011;17579;42.690;2.586;2023-02-23T11:36:58;13.40;;;8.63;;
30872;SDS011;17579;42.690;2.586;2023-02-23T11:39:26;14.65;;;9.52;;
30872;SDS011;17579;42.690;2.586;2023-02-23T11:44:28;15.75;;;10.90;;
30872;SDS011;17579;42.690;2.586;2023-02-23T11:46:53;15.93;;;10.48;;
30872;SDS011;17579;42.690;2.586;2023-02-23T11:49:20;13.77;;;8.52;;
30872;SDS011;17579;42.690;2.586;2023-02-23T11:51:53;17.27;;;9.50;;
30872;SDS011;17579;42.690;2.586;2023-02-23T11:56:49;15.13;;;10.10;;
30872;SDS011;17579;42.690;2.586;2023-02-23T11:59:16;13.98;;;8.82;;
30872;SDS011;17579;42.690;2.586;2023-02-23T12:01:45;16.02;;;9.88;;
30872;SDS011;17579;42.690;2.586;2023-02-23T12:06:40;15.70;;;10.85;;
30872;SDS011;17579;42.690;2.586;2023-02-23T12:11:35;14.25;;;10.23;;
30872;SDS011;17579;42.690;2.586;2023-02-23T12:16:37;20.98;;;11.20;;
30872;SDS011;17579;42.690;2.586;2023-02-23T12:19:19;21.27;;;11.40;;
30872;SDS011;17579;42.690;2.586;2023-02-23T12:21:52;14.65;;;10.93;;
30872;SDS011;17579;42.690;2.586;2023-02-23T12:27:10;17.55;;;12.27;;
30872;SDS011;17579;42.690;2.586;2023-02-23T12:32:27;15.52;;;11.20;;
30872;SDS011;17579;42.690;2.586;2023-02-23T12:37:38;15.57;;;12.07;;
30872;SDS011;17579;42.690;2.586;2023-02-23T12:40:11;15.73;;;12.07;;
30872;SDS011;17579;42.690;2.586;2023-02-23T12:42:44;16.23;;;11.32;;
30872;SDS011;17579;42.690;2.586;2023-02-23T12:45:19;18.13;;;12.40;;
30872;SDS011;17579;42.690;2.586;2023-02-23T12:50:23;20.35;;;12.48;;
30872;SDS011;17579;42.690;2.586;2023-02-23T12:52:54;18.70;;;13.38;;
30872;SDS011;17579;42.690;2.586;2023-02-23T12:55:28;16.30;;;11.77;;
30872;SDS011;17579;42.690;2.586;2023-02-23T12:58:05;18.55;;;14.07;;
30872;SDS011;17579;42.690;2.586;2023-02-23T13:00:41;17.48;;;12.60;;
30872;SDS011;17579;42.690;2.586;2023-02-23T13:03:21;16.83;;;13.45;;
30872;SDS011;17579;42.690;2.586;2023-02-23T13:06:03;17.48;;;13.05;;
30872;SDS011;17579;42.690;2.586;2023-02-23T13:08:40;19.33;;;14.65;;
30872;SDS011;17579;42.690;2.586;2023-02-23T13:11:25;17.48;;;11.80;;
30872;SDS011;17579;42.690;2.586;2023-02-23T13:14:13;15.60;;;11.20;;
30872;SDS011;17579;42.690;2.586;2023-02-23T13:16:49;16.60;;;12.43;;
30872;SDS011;17579;42.690;2.586;2023-02-23T13:19:21;17.17;;;12.98;;
30872;SDS011;17579;42.690;2.586;2023-02-23T13:24:53;15.50;;;10.82;;
30872;SDS011;17579;42.690;2.586;2023-02-23T13:27:29;15.10;;;12.65;;
30872;SDS011;17579;42.690;2.586;2023-02-23T13:30:00;17.30;;;11.98;;
30872;SDS011;17579;42.690;2.586;2023-02-23T13:32:28;16.42;;;11.77;;
30872;SDS011;17579;42.690;2.586;2023-02-23T13:34:57;18.50;;;12.63;;
30872;SDS011;17579;42.690;2.586;2023-02-23T13:37:27;16.45;;;10.80;;
30872;SDS011;17579;42.690;2.586;2023-02-23T13:43:08;16.73;;;11.55;;
30872;SDS011;17579;42.690;2.586;2023-02-23T13:45:46;15.23;;;10.02;;
30872;SDS011;17579;42.690;2.586;2023-02-23T13:51:02;13.02;;;9.85;;
30872;SDS011;17579;42.690;2.586;2023-02-23T13:53:35;15.77;;;9.65;;
30872;SDS011;17579;42.690;2.586;2023-02-23T13:56:05;15.07;;;11.27;;
30872;SDS011;17579;42.690;2.586;2023-02-23T13:58:33;14.20;;;10.30;;
30872;SDS011;17579;42.690;2.586;2023-02-23T14:03:26;14.85;;;10.02;;
30872;SDS011;17579;42.690;2.586;2023-02-23T14:05:55;14.38;;;11.10;;
30872;SDS011;17579;42.690;2.586;2023-02-23T14:08:37;18.42;;;10.75;;
30872;SDS011;17579;42.690;2.586;2023-02-23T14:11:06;17.30;;;10.57;;
30872;SDS011;17579;42.690;2.586;2023-02-23T14:13:32;17.08;;;10.63;;
30872;SDS011;17579;42.690;2.586;2023-02-23T14:18:31;19.20;;;10.25;;
30872;SDS011;17579;42.690;2.586;2023-02-23T14:23:26;16.83;;;9.52;;
30872;SDS011;17579;42.690;2.586;2023-02-23T14:28:24;15.80;;;9.52;;
30872;SDS011;17579;42.690;2.586;2023-02-23T14:31:15;11.00;;;9.15;;
30872;SDS011;17579;42.690;2.586;2023-02-23T14:33:54;16.20;;;9.82;;
30872;SDS011;17579;42.690;2.586;2023-02-23T14:36:26;19.02;;;10.85;;
30872;SDS011;17579;42.690;2.586;2023-02-23T14:38:59;18.67;;;11.55;;
30872;SDS011;17579;42.690;2.586;2023-02-23T14:41:37;18.02;;;12.00;;
30872;SDS011;17579;42.690;2.586;2023-02-23T14:44:11;11.18;;;8.02;;
30872;SDS011;17579;42.690;2.586;2023-02-23T14:49:08;12.95;;;8.30;;
30872;SDS011;17579;42.690;2.586;2023-02-23T14:51:44;13.52;;;9.13;;
30872;SDS011;17579;42.690;2.586;2023-02-23T14:54:20;8.88;;;7.65;;
30872;SDS011;17579;42.690;2.586;2023-02-23T14:56:50;14.60;;;9.80;;
30872;SDS011;17579;42.690;2.586;2023-02-23T14:59:19;14.05;;;10.07;;
30872;SDS011;17579;42.690;2.586;2023-02-23T15:01:47;17.20;;;12.70;;
30872;SDS011;17579;42.690;2.586;2023-02-23T15:06:41;14.13;;;10.75;;
30872;SDS011;17579;42.690;2.586;2023-02-23T15:09:36;13.48;;;11.52;;
30872;SDS011;17579;42.690;2.586;2023-02-23T15:12:02;17.10;;;11.60;;
30872;SDS011;17579;42.690;2.586;2023-02-23T15:14:35;14.88;;;12.45;;
30872;SDS011;17579;42.690;2.586;2023-02-23T15:17:03;16.08;;;11.50;;
30872;SDS011;17579;42.690;2.586;2023-02-23T15:19:30;18.30;;;11.80;;
30872;SDS011;17579;42.690;2.586;2023-02-23T15:21:59;19.40;;;12.15;;
30872;SDS011;17579;42.690;2.586;2023-02-23T15:24:29;15.05;;;12.27;;
30872;SDS011;17579;42.690;2.586;2023-02-23T15:27:04;17.27;;;10.63;;
30872;SDS011;17579;42.690;2.586;2023-02-23T15:29:32;18.52;;;10.77;;
30872;SDS011;17579;42.690;2.586;2023-02-23T15:32:09;16.15;;;11.85;;
30872;SDS011;17579;42.690;2.586;2023-02-23T15:34:39;13.70;;;10.85;;
30872;SDS011;17579;42.690;2.586;2023-02-23T15:37:06;14.60;;;11.90;;
30872;SDS011;17579;42.690;2.586;2023-02-23T15:39:42;17.55;;;11.88;;
30872;SDS011;17579;42.690;2.586;2023-02-23T15:42:17;15.82;;;11.88;;
30872;SDS011;17579;42.690;2.586;2023-02-23T15:44:52;17.05;;;12.68;;
30872;SDS011;17579;42.690;2.586;2023-02-23T15:47:21;14.43;;;11.18;;
30872;SDS011;17579;42.690;2.586;2023-02-23T15:49:58;14.35;;;11.20;;
30872;SDS011;17579;42.690;2.586;2023-02-23T15:52:27;16.42;;;12.32;;
30872;SDS011;17579;42.690;2.586;2023-02-23T15:55:00;12.68;;;11.23;;
30872;SDS011;17579;42.690;2.586;2023-02-23T15:57:32;15.13;;;12.10;;
30872;SDS011;17579;42.690;2.586;2023-02-23T16:00:13;18.15;;;11.55;;
30872;SDS011;17579;42.690;2.586;2023-02-23T16:02:56;17.98;;;12.32;;
30872;SDS011;17579;42.690;2.586;2023-02-23T16:05:23;15.02;;;11.32;;
30872;SDS011;17579;42.690;2.586;2023-02-23T16:08:00;14.93;;;11.23;;
30872;SDS011;17579;42.690;2.586;2023-02-23T16:10:31;14.15;;;11.98;;
30872;SDS011;17579;42.690;2.586;2023-02-23T16:13:08;13.65;;;10.48;;
30872;SDS011;17579;42.690;2.586;2023-02-23T16:15:37;14.90;;;10.82;;
30872;SDS011;17579;42.690;2.586;2023-02-23T16:18:04;16.05;;;10.32;;
30872;SDS011;17579;42.690;2.586;2023-02-23T16:20:37;14.70;;;11.68;;